createdAt,value
2017-10-23T00:01:01.055Z,86.4
2017-10-23T00:02:02.452Z,86.7
2017-10-23T00:03:03.847Z,86.1
2017-10-23T00:04:05.240Z,86.1
2017-10-23T00:05:06.639Z,86.0
2017-10-23T00:06:08.036Z,85.5
2017-10-23T00:07:09.434Z,85.6
2017-10-23T00:08:10.831Z,85.5
2017-10-23T00:09:12.225Z,85.5
2017-10-23T00:10:13.669Z,85.7
2017-10-23T00:11:15.064Z,85.9
2017-10-23T00:12:16.456Z,86.0
2017-10-23T00:13:17.855Z,85.7
2017-10-23T00:14:19.251Z,85.4
2017-10-23T00:15:20.648Z,85.4
2017-10-23T00:16:22.043Z,85.3
2017-10-23T00:17:23.439Z,85.7
2017-10-23T00:18:24.833Z,85.5
2017-10-23T00:19:26.227Z,85.7
2017-10-23T00:20:27.622Z,85.4
2017-10-23T00:21:29.017Z,85.9
2017-10-23T00:22:30.415Z,85.3
2017-10-23T00:23:31.812Z,85.2
2017-10-23T00:24:33.207Z,85.9
2017-10-23T00:25:34.604Z,85.7
2017-10-23T00:26:35.996Z,85.8
2017-10-23T00:27:37.463Z,86.0
2017-10-23T00:28:38.863Z,86.0
2017-10-23T00:29:40.261Z,85.2
2017-10-23T00:30:41.661Z,85.7
2017-10-23T00:31:43.055Z,86.1
2017-10-23T00:32:44.447Z,86.0
2017-10-23T00:33:45.844Z,85.8
2017-10-23T00:34:47.242Z,85.9
2017-10-23T00:35:48.638Z,85.7
2017-10-23T00:36:50.038Z,86.2
2017-10-23T00:37:51.436Z,85.6
2017-10-23T00:38:52.833Z,85.7
2017-10-23T00:39:54.222Z,85.8
2017-10-23T00:40:55.616Z,85.7
2017-10-23T00:41:57.013Z,85.7
2017-10-23T00:42:58.407Z,85.9
2017-10-23T00:43:59.807Z,86.0
2017-10-23T00:45:01.202Z,85.7
2017-10-23T00:46:02.597Z,86.1
2017-10-23T00:47:03.996Z,86.1
2017-10-23T00:48:05.390Z,86.1
2017-10-23T00:49:06.787Z,86.1
2017-10-23T00:50:08.184Z,86.2
2017-10-23T00:51:09.579Z,86.8
2017-10-23T00:52:10.975Z,85.7
2017-10-23T00:53:12.369Z,86.5
2017-10-23T00:54:13.764Z,86.3
2017-10-23T00:55:15.162Z,86.4
2017-10-23T00:56:16.557Z,86.7
2017-10-23T00:57:17.954Z,86.5
2017-10-23T00:58:19.351Z,86.6
2017-10-23T00:59:20.757Z,86.0
2017-10-23T01:00:22.150Z,86.1
2017-10-23T01:01:23.560Z,85.9
2017-10-23T01:02:24.948Z,86.2
2017-10-23T01:03:26.345Z,86.6
2017-10-23T01:04:27.740Z,86.7
2017-10-23T01:05:29.136Z,86.6
2017-10-23T01:06:30.534Z,86.7
2017-10-23T01:07:31.926Z,86.1
2017-10-23T01:08:33.324Z,86.3
2017-10-23T01:09:34.721Z,86.7
2017-10-23T01:10:36.116Z,86.7
2017-10-23T01:11:37.520Z,86.5
2017-10-23T01:12:38.910Z,86.4
2017-10-23T01:13:40.304Z,86.6
2017-10-23T01:14:41.695Z,86.7
2017-10-23T01:15:43.093Z,86.4
2017-10-23T01:16:44.494Z,86.4
2017-10-23T01:17:45.881Z,87.0
2017-10-23T01:18:47.276Z,86.6
2017-10-23T01:19:48.674Z,86.7
2017-10-23T01:20:50.069Z,86.4
2017-10-23T01:21:51.464Z,86.7
2017-10-23T01:22:52.856Z,86.8
2017-10-23T01:23:54.253Z,86.8
2017-10-23T01:24:55.647Z,86.6
2017-10-23T01:25:57.046Z,86.6
2017-10-23T01:26:58.443Z,86.8
2017-10-23T01:27:59.841Z,87.4
2017-10-23T01:29:01.232Z,87.0
2017-10-23T01:30:02.629Z,86.8
2017-10-23T01:31:04.023Z,87.3
2017-10-23T01:32:05.419Z,86.9
2017-10-23T01:33:06.818Z,87.1
2017-10-23T01:34:08.217Z,87.1
2017-10-23T01:35:09.614Z,87.3
2017-10-23T01:36:11.008Z,86.8
2017-10-23T01:37:12.404Z,87.9
2017-10-23T01:38:13.800Z,87.7
2017-10-23T01:39:15.208Z,87.6
2017-10-23T01:40:16.594Z,88.0
2017-10-23T01:41:17.990Z,87.9
2017-10-23T01:42:19.393Z,88.0
2017-10-23T01:43:20.788Z,88.1
2017-10-23T01:44:22.180Z,88.7
2017-10-23T01:45:23.575Z,88.9
2017-10-23T01:46:24.972Z,88.7
2017-10-23T01:47:26.366Z,89.0
2017-10-23T01:48:27.761Z,89.6
2017-10-23T01:49:29.154Z,89.5
2017-10-23T01:50:30.552Z,89.1
2017-10-23T01:51:31.969Z,90.2
2017-10-23T01:52:33.366Z,90.3
2017-10-23T01:53:34.760Z,90.3
2017-10-23T01:54:36.157Z,90.6
2017-10-23T01:55:37.553Z,90.6
2017-10-23T01:56:38.950Z,90.7
2017-10-23T01:57:40.352Z,90.6
2017-10-23T01:58:41.743Z,90.6
2017-10-23T01:59:43.136Z,90.4
2017-10-23T02:00:44.530Z,90.9
2017-10-23T02:01:45.925Z,91.0
2017-10-23T02:02:47.322Z,91.0
2017-10-23T02:03:48.746Z,90.8
2017-10-23T02:04:50.142Z,91.0
2017-10-23T02:05:51.541Z,91.0
2017-10-23T02:06:52.933Z,90.8
2017-10-23T02:07:54.331Z,90.7
2017-10-23T02:08:55.725Z,90.3
2017-10-23T02:09:57.120Z,91.0
2017-10-23T02:10:58.518Z,90.6
2017-10-23T02:11:59.915Z,90.3
2017-10-23T02:13:01.312Z,90.7
2017-10-23T02:14:02.709Z,90.7
2017-10-23T02:15:04.104Z,90.4
2017-10-23T02:16:05.503Z,90.6
2017-10-23T02:17:06.900Z,89.7
2017-10-23T02:18:08.296Z,90.2
2017-10-23T02:19:09.692Z,89.6
2017-10-23T02:20:11.088Z,90.0
2017-10-23T02:21:12.482Z,90.2
2017-10-23T02:22:13.879Z,89.3
2017-10-23T02:23:15.273Z,90.0
2017-10-23T02:24:16.667Z,89.2
2017-10-23T02:25:18.072Z,89.9
2017-10-23T02:26:19.463Z,89.5
2017-10-23T02:27:20.859Z,89.1
2017-10-23T02:28:22.253Z,89.1
2017-10-23T02:29:23.649Z,89.3
2017-10-23T02:30:25.045Z,89.4
2017-10-23T02:31:26.444Z,89.5
2017-10-23T02:32:27.839Z,89.3
2017-10-23T02:33:29.232Z,89.5
2017-10-23T02:34:30.626Z,89.1
2017-10-23T02:35:32.021Z,89.3
2017-10-23T02:36:33.419Z,89.5
2017-10-23T02:37:34.814Z,89.7
2017-10-23T02:38:36.207Z,89.3
2017-10-23T02:39:37.606Z,88.9
2017-10-23T02:40:39.000Z,89.1
2017-10-23T02:41:40.399Z,89.2
2017-10-23T02:42:41.795Z,89.4
2017-10-23T02:43:43.191Z,89.5
2017-10-23T02:44:44.590Z,89.6
2017-10-23T02:45:45.981Z,89.4
2017-10-23T02:46:47.378Z,89.1
2017-10-23T02:47:48.771Z,89.4
2017-10-23T02:48:50.169Z,89.4
2017-10-23T02:49:51.564Z,89.0
2017-10-23T02:50:52.962Z,89.5
2017-10-23T02:51:54.354Z,89.5
2017-10-23T02:52:55.753Z,89.2
2017-10-23T02:53:57.152Z,89.0
2017-10-23T02:54:58.547Z,89.1
2017-10-23T02:55:59.941Z,89.2
2017-10-23T02:57:01.338Z,88.6
2017-10-23T02:58:02.735Z,88.9
2017-10-23T02:59:04.134Z,88.8
2017-10-23T03:00:05.534Z,88.8
2017-10-23T03:01:06.931Z,88.7
2017-10-23T03:02:08.324Z,88.7
2017-10-23T03:03:09.718Z,89.4
2017-10-23T03:04:11.116Z,89.6
2017-10-23T03:05:12.512Z,89.5
2017-10-23T03:06:13.905Z,88.7
2017-10-23T03:07:15.301Z,88.7
2017-10-23T03:08:16.698Z,89.0
2017-10-23T03:09:18.091Z,89.2
2017-10-23T03:10:19.488Z,89.4
2017-10-23T03:11:20.885Z,89.1
2017-10-23T03:12:22.280Z,89.1
2017-10-23T03:13:23.677Z,89.3
2017-10-23T03:14:25.070Z,89.0
2017-10-23T03:15:26.465Z,88.6
2017-10-23T03:16:27.861Z,88.7
2017-10-23T03:17:29.256Z,88.7
2017-10-23T03:18:30.649Z,88.7
2017-10-23T03:19:32.045Z,89.0
2017-10-23T03:20:33.461Z,89.0
2017-10-23T03:21:34.842Z,88.7
2017-10-23T03:22:36.240Z,88.7
2017-10-23T03:23:37.637Z,89.1
2017-10-23T03:24:39.031Z,88.7
2017-10-23T03:25:40.422Z,88.6
2017-10-23T03:26:41.819Z,88.9
2017-10-23T03:27:43.216Z,88.9
2017-10-23T03:28:44.613Z,89.1
2017-10-23T03:29:46.007Z,89.0
2017-10-23T03:30:47.402Z,88.8
2017-10-23T03:31:48.795Z,89.0
2017-10-23T03:32:50.257Z,89.2
2017-10-23T03:33:51.656Z,89.2
2017-10-23T03:34:53.051Z,88.7
2017-10-23T03:35:54.448Z,88.8
2017-10-23T03:36:55.844Z,88.7
2017-10-23T03:37:57.240Z,88.9
2017-10-23T03:38:58.635Z,88.6
2017-10-23T03:40:00.030Z,88.9
2017-10-23T03:41:01.429Z,89.2
2017-10-23T03:42:02.822Z,89.2
2017-10-23T03:43:04.223Z,89.2
2017-10-23T03:44:05.619Z,89.0
2017-10-23T03:45:07.013Z,89.2
2017-10-23T03:46:08.411Z,89.2
2017-10-23T03:47:09.834Z,88.5
2017-10-23T03:48:11.203Z,88.6
2017-10-23T03:49:12.601Z,88.2
2017-10-23T03:50:13.999Z,88.3
2017-10-23T03:51:15.392Z,88.1
2017-10-23T03:52:16.791Z,88.3
2017-10-23T03:53:18.189Z,88.7
2017-10-23T03:54:19.584Z,88.5
2017-10-23T03:55:20.980Z,88.4
2017-10-23T03:56:22.377Z,88.0
2017-10-23T03:57:23.771Z,88.1
2017-10-23T03:58:25.167Z,88.1
2017-10-23T03:59:26.565Z,88.4
2017-10-23T04:00:27.957Z,88.1
2017-10-23T04:01:29.355Z,87.8
2017-10-23T04:02:30.751Z,88.2
2017-10-23T04:03:32.148Z,88.6
2017-10-23T04:04:33.544Z,88.2
2017-10-23T04:05:34.938Z,88.2
2017-10-23T04:06:36.332Z,87.9
2017-10-23T04:07:37.731Z,88.2
2017-10-23T04:08:39.126Z,88.3
2017-10-23T04:09:40.525Z,88.3
2017-10-23T04:10:41.921Z,88.8
2017-10-23T04:11:43.316Z,88.9
2017-10-23T04:12:44.713Z,88.5
2017-10-23T04:13:46.112Z,88.9
2017-10-23T04:14:47.507Z,89.3
2017-10-23T04:15:48.902Z,89.2
2017-10-23T04:16:50.301Z,89.1
2017-10-23T04:17:51.697Z,89.3
2017-10-23T04:18:53.097Z,89.0
2017-10-23T04:19:54.490Z,89.2
2017-10-23T04:20:55.886Z,88.7
2017-10-23T04:21:57.283Z,89.1
2017-10-23T04:22:58.680Z,89.2
2017-10-23T04:24:00.078Z,89.5
2017-10-23T04:25:01.473Z,89.2
2017-10-23T04:26:02.875Z,89.1
2017-10-23T04:27:04.282Z,89.2
2017-10-23T04:28:05.673Z,89.1
2017-10-23T04:29:07.505Z,89.4
2017-10-23T04:30:09.616Z,89.5
2017-10-23T04:31:11.599Z,89.1
2017-10-23T04:32:14.072Z,89.6
2017-10-23T04:33:16.680Z,89.3
2017-10-23T04:34:19.357Z,89.4
2017-10-23T04:35:21.318Z,89.2
2017-10-23T04:36:23.175Z,89.4
2017-10-23T04:37:24.563Z,89.5
2017-10-23T04:38:25.961Z,89.4
2017-10-23T04:39:27.356Z,89.6
2017-10-23T04:40:28.751Z,89.6
2017-10-23T04:41:30.149Z,89.6
2017-10-23T04:42:31.540Z,89.5
2017-10-23T04:43:32.936Z,89.1
2017-10-23T04:44:34.333Z,89.5
2017-10-23T04:45:35.836Z,89.4
2017-10-23T04:46:37.227Z,89.6
2017-10-23T04:47:38.625Z,89.6
2017-10-23T04:48:40.021Z,89.3
2017-10-23T04:49:41.415Z,89.3
2017-10-23T04:50:42.810Z,90.0
2017-10-23T04:51:44.272Z,90.0
2017-10-23T04:52:45.664Z,89.6
2017-10-23T04:53:47.057Z,90.0
2017-10-23T04:54:48.456Z,90.4
2017-10-23T04:55:49.854Z,90.5
2017-10-23T04:56:51.245Z,90.6
2017-10-23T04:57:52.641Z,90.6
2017-10-23T04:58:54.034Z,90.6
2017-10-23T04:59:55.429Z,90.5
2017-10-23T05:00:56.825Z,91.3
2017-10-23T05:01:58.222Z,91.2
2017-10-23T05:02:59.620Z,91.1
2017-10-23T05:04:01.012Z,91.2
2017-10-23T05:05:02.423Z,91.3
2017-10-23T05:06:03.811Z,91.6
2017-10-23T05:07:05.205Z,91.6
2017-10-23T05:08:06.602Z,92.4
2017-10-23T05:09:08.002Z,92.6
2017-10-23T05:10:09.405Z,92.4
2017-10-23T05:11:10.799Z,92.4
2017-10-23T05:12:12.194Z,92.6
2017-10-23T05:13:13.588Z,92.4
2017-10-23T05:14:14.985Z,92.6
2017-10-23T05:15:16.379Z,92.4
2017-10-23T05:16:17.779Z,92.3
2017-10-23T05:17:19.174Z,92.6
2017-10-23T05:18:20.567Z,92.7
2017-10-23T05:19:21.970Z,93.4
2017-10-23T05:20:23.365Z,93.9
2017-10-23T05:21:24.760Z,94.3
2017-10-23T05:22:26.158Z,94.6
2017-10-23T05:23:27.556Z,94.3
2017-10-23T05:24:28.951Z,94.7
2017-10-23T05:25:30.343Z,94.9
2017-10-23T05:26:31.737Z,95.5
2017-10-23T05:27:33.131Z,95.6
2017-10-23T05:28:34.533Z,95.5
2017-10-23T05:29:35.924Z,95.3
2017-10-23T05:30:37.323Z,95.3
2017-10-23T05:31:38.718Z,95.0
2017-10-23T05:32:40.113Z,95.0
2017-10-23T05:33:41.509Z,95.1
2017-10-23T05:34:42.902Z,94.9
2017-10-23T05:35:44.298Z,95.5
2017-10-23T05:36:45.697Z,95.5
2017-10-23T05:37:47.095Z,95.5
2017-10-23T05:38:48.495Z,95.3
2017-10-23T05:39:49.891Z,95.7
2017-10-23T05:40:51.288Z,96.3
2017-10-23T05:41:52.682Z,96.1
2017-10-23T05:42:54.100Z,96.4
2017-10-23T05:43:55.495Z,96.6
2017-10-23T05:44:56.896Z,96.7
2017-10-23T05:45:58.291Z,96.7
2017-10-23T05:46:59.686Z,96.6
2017-10-23T05:48:01.080Z,97.0
2017-10-23T05:49:02.473Z,97.1
2017-10-23T05:50:03.868Z,97.0
2017-10-23T05:51:05.263Z,97.2
2017-10-23T05:52:06.666Z,97.0
2017-10-23T05:53:08.060Z,97.4
2017-10-23T05:54:09.460Z,97.1
2017-10-23T05:55:10.853Z,96.8
2017-10-23T05:56:12.249Z,96.8
2017-10-23T05:57:13.644Z,96.5
2017-10-23T05:58:15.040Z,96.6
2017-10-23T05:59:16.437Z,96.7
2017-10-23T06:00:17.837Z,96.6
2017-10-23T06:01:19.237Z,96.4
2017-10-23T06:02:20.639Z,96.4
2017-10-23T06:03:22.033Z,95.9
2017-10-23T06:04:23.431Z,95.9
2017-10-23T06:05:24.828Z,96.3
2017-10-23T06:06:26.228Z,96.0
2017-10-23T06:07:27.631Z,95.7
2017-10-23T06:08:29.023Z,95.6
2017-10-23T06:09:30.419Z,95.5
2017-10-23T06:10:31.812Z,95.8
2017-10-23T06:11:33.207Z,95.9
2017-10-23T06:12:34.607Z,95.7
2017-10-23T06:13:36.002Z,95.3
2017-10-23T06:14:37.408Z,95.5
2017-10-23T06:15:38.795Z,94.9
2017-10-23T06:16:40.189Z,95.2
2017-10-23T06:17:41.588Z,95.0
2017-10-23T06:18:42.984Z,95.0
2017-10-23T06:19:44.380Z,95.0
2017-10-23T06:20:45.780Z,94.6
2017-10-23T06:21:47.180Z,95.1
2017-10-23T06:22:48.576Z,94.7
2017-10-23T06:23:49.976Z,95.1
2017-10-23T06:24:51.373Z,94.7
2017-10-23T06:25:52.775Z,95.0
2017-10-23T06:26:54.171Z,95.1
2017-10-23T06:27:55.572Z,94.8
2017-10-23T06:28:56.972Z,94.6
2017-10-23T06:29:58.373Z,94.6
2017-10-23T06:30:59.767Z,94.7
2017-10-23T06:32:01.162Z,94.9
2017-10-23T06:33:02.560Z,94.8
2017-10-23T06:34:03.956Z,94.9
2017-10-23T06:35:05.359Z,94.9
2017-10-23T06:36:06.760Z,94.2
2017-10-23T06:37:08.156Z,94.5
2017-10-23T06:38:09.555Z,94.7
2017-10-23T06:39:10.958Z,94.7
2017-10-23T06:40:12.346Z,93.9
2017-10-23T06:41:13.743Z,94.1
2017-10-23T06:42:15.142Z,94.3
2017-10-23T06:43:16.543Z,94.2
2017-10-23T06:44:17.939Z,94.6
2017-10-23T06:45:19.339Z,94.1
2017-10-23T06:46:20.736Z,94.1
2017-10-23T06:47:22.141Z,93.7
2017-10-23T06:48:23.541Z,94.4
2017-10-23T06:49:24.943Z,94.0
2017-10-23T06:50:26.347Z,93.9
2017-10-23T06:51:27.736Z,94.0
2017-10-23T06:52:29.135Z,94.0
2017-10-23T06:53:30.533Z,93.5
2017-10-23T06:54:31.958Z,93.4
2017-10-23T06:55:33.357Z,93.6
2017-10-23T06:56:34.759Z,93.5
2017-10-23T06:57:36.157Z,93.8
2017-10-23T06:58:37.555Z,93.6
2017-10-23T06:59:38.957Z,93.8
2017-10-23T07:00:40.354Z,93.7
2017-10-23T07:01:41.754Z,93.2
2017-10-23T07:02:43.151Z,93.8
2017-10-23T07:03:44.550Z,93.6
2017-10-23T07:04:45.950Z,93.8
2017-10-23T07:05:47.346Z,93.5
2017-10-23T07:06:48.744Z,93.2
2017-10-23T07:07:50.143Z,93.2
2017-10-23T07:08:51.502Z,93.4
2017-10-23T07:09:52.901Z,93.5
2017-10-23T07:10:54.298Z,93.2
2017-10-23T07:11:55.698Z,93.5
2017-10-23T07:12:57.096Z,93.4
2017-10-23T07:13:58.492Z,93.2
2017-10-23T07:14:59.898Z,93.4
2017-10-23T07:16:01.286Z,92.6
2017-10-23T07:17:02.687Z,92.6
2017-10-23T07:18:04.089Z,93.2
2017-10-23T07:19:05.488Z,93.5
2017-10-23T07:20:06.887Z,93.2
2017-10-23T07:21:08.288Z,92.3
2017-10-23T07:22:09.686Z,92.6
2017-10-23T07:23:11.085Z,92.6
2017-10-23T07:24:12.487Z,92.5
2017-10-23T07:25:13.889Z,92.6
2017-10-23T07:26:15.288Z,92.6
2017-10-23T07:27:16.686Z,92.7
2017-10-23T07:28:18.086Z,92.3
2017-10-23T07:29:19.496Z,92.2
2017-10-23T07:30:20.890Z,92.6
2017-10-23T07:31:22.288Z,91.9
2017-10-23T07:32:23.687Z,91.9
2017-10-23T07:33:25.095Z,91.9
2017-10-23T07:34:26.486Z,91.7
2017-10-23T07:35:27.885Z,91.9
2017-10-23T07:36:29.315Z,91.8
2017-10-23T07:37:30.721Z,91.9
2017-10-23T07:38:32.119Z,92.2
2017-10-23T07:39:33.521Z,91.6
2017-10-23T07:40:34.921Z,91.3
2017-10-23T07:41:36.320Z,91.3
2017-10-23T07:42:37.719Z,91.3
2017-10-23T07:43:39.126Z,91.4
2017-10-23T07:44:40.523Z,91.7
2017-10-23T07:45:41.927Z,91.2
2017-10-23T07:46:43.327Z,91.3
2017-10-23T07:47:44.726Z,91.3
2017-10-23T07:48:46.127Z,91.0
2017-10-23T07:49:47.529Z,91.3
2017-10-23T07:50:48.930Z,90.9
2017-10-23T07:51:50.327Z,90.9
2017-10-23T07:52:51.725Z,90.8
2017-10-23T07:53:53.131Z,90.6
2017-10-23T07:54:54.533Z,90.6
2017-10-23T07:55:55.931Z,90.1
2017-10-23T07:56:57.347Z,90.6
2017-10-23T07:57:58.746Z,90.0
2017-10-23T07:59:00.147Z,90.0
2017-10-23T08:00:01.553Z,89.9
2017-10-23T08:01:02.952Z,90.2
2017-10-23T08:02:04.357Z,90.7
2017-10-23T08:03:05.754Z,90.6
2017-10-23T08:04:07.152Z,90.0
2017-10-23T08:05:08.553Z,90.1
2017-10-23T08:06:09.958Z,90.3
2017-10-23T08:07:11.361Z,90.2
2017-10-23T08:08:12.766Z,90.8
2017-10-23T08:09:14.171Z,90.6
2017-10-23T08:10:15.570Z,90.3
2017-10-23T08:11:16.969Z,89.7
2017-10-23T08:12:18.372Z,90.0
2017-10-23T08:13:19.768Z,90.1
2017-10-23T08:14:21.170Z,90.0
2017-10-23T08:15:22.571Z,89.5
2017-10-23T08:16:23.974Z,90.4
2017-10-23T08:17:25.371Z,90.5
2017-10-23T08:18:26.770Z,90.5
2017-10-23T08:19:28.171Z,90.3
2017-10-23T08:20:29.573Z,90.1
2017-10-23T08:21:30.977Z,90.4
2017-10-23T08:22:32.372Z,89.7
2017-10-23T08:23:33.774Z,89.9
2017-10-23T08:24:35.169Z,89.9
2017-10-23T08:25:36.570Z,90.2
2017-10-23T08:26:38.020Z,90.3
2017-10-23T08:27:39.417Z,90.0
2017-10-23T08:28:40.825Z,90.2
2017-10-23T08:29:42.226Z,89.4
2017-10-23T08:30:43.630Z,90.1
2017-10-23T08:31:45.030Z,89.9
2017-10-23T08:32:46.429Z,90.2
2017-10-23T08:33:47.826Z,90.2
2017-10-23T08:34:49.230Z,89.9
2017-10-23T08:35:50.631Z,90.1
2017-10-23T08:36:52.039Z,89.5
2017-10-23T08:37:53.442Z,89.4
2017-10-23T08:38:54.840Z,89.7
2017-10-23T08:39:56.237Z,89.9
2017-10-23T08:40:57.640Z,89.5
2017-10-23T08:41:59.039Z,89.7
2017-10-23T08:43:00.438Z,89.9
2017-10-23T08:44:01.841Z,89.5
2017-10-23T08:45:03.242Z,89.5
2017-10-23T08:46:04.642Z,89.5
2017-10-23T08:47:06.046Z,89.3
2017-10-23T08:48:07.445Z,90.1
2017-10-23T08:49:08.843Z,89.7
2017-10-23T08:50:10.246Z,90.2
2017-10-23T08:51:11.648Z,89.5
2017-10-23T08:52:13.051Z,89.7
2017-10-23T08:53:14.449Z,90.3
2017-10-23T08:54:15.846Z,90.1
2017-10-23T08:55:17.247Z,89.9
2017-10-23T08:56:18.648Z,90.1
2017-10-23T08:57:20.052Z,89.6
2017-10-23T08:58:21.454Z,89.3
2017-10-23T08:59:22.854Z,89.5
2017-10-23T09:00:24.254Z,89.5
2017-10-23T09:01:25.655Z,89.3
2017-10-23T09:02:27.056Z,89.6
2017-10-23T09:03:28.458Z,89.5
2017-10-23T09:04:29.861Z,89.6
2017-10-23T09:05:31.261Z,89.5
2017-10-23T09:06:32.663Z,89.5
2017-10-23T09:07:34.061Z,89.2
2017-10-23T09:08:35.462Z,89.5
2017-10-23T09:09:36.862Z,89.3
2017-10-23T09:10:38.261Z,88.5
2017-10-23T09:11:39.663Z,88.7
2017-10-23T09:12:41.065Z,89.0
2017-10-23T09:13:42.463Z,88.9
2017-10-23T09:14:43.864Z,89.3
2017-10-23T09:15:45.263Z,88.8
2017-10-23T09:16:46.668Z,89.1
2017-10-23T09:17:48.067Z,89.3
2017-10-23T09:18:49.468Z,88.8
2017-10-23T09:19:50.873Z,89.2
2017-10-23T09:20:52.290Z,88.7
2017-10-23T09:21:53.687Z,88.6
2017-10-23T09:22:55.088Z,88.3
2017-10-23T09:23:56.497Z,88.2
2017-10-23T09:24:57.898Z,88.8
2017-10-23T09:25:59.326Z,88.6
2017-10-23T09:27:00.707Z,88.7
2017-10-23T09:28:02.111Z,88.7
2017-10-23T09:29:03.518Z,88.9
2017-10-23T09:30:04.918Z,89.2
2017-10-23T09:31:06.321Z,88.3
2017-10-23T09:32:07.722Z,88.2
2017-10-23T09:33:09.127Z,87.9
2017-10-23T09:34:10.530Z,88.2
2017-10-23T09:35:11.936Z,87.1
2017-10-23T09:36:13.337Z,87.6
2017-10-23T09:37:14.737Z,87.1
2017-10-23T09:38:16.137Z,87.2
2017-10-23T09:39:17.539Z,87.4
2017-10-23T09:40:18.941Z,87.2
2017-10-23T09:41:20.347Z,87.5
2017-10-23T09:42:21.755Z,86.5
2017-10-23T09:43:23.157Z,86.5
2017-10-23T09:44:24.559Z,86.6
2017-10-23T09:45:25.963Z,86.7
2017-10-23T09:46:27.366Z,86.7
2017-10-23T09:47:28.769Z,86.1
2017-10-23T09:48:30.172Z,86.8
2017-10-23T09:49:31.580Z,86.0
2017-10-23T09:50:32.985Z,85.6
2017-10-23T09:51:34.385Z,85.7
2017-10-23T09:52:35.791Z,84.1
2017-10-23T09:53:37.195Z,83.6
2017-10-23T09:54:38.622Z,84.1
2017-10-23T09:55:40.030Z,83.5
2017-10-23T09:56:41.435Z,83.7
2017-10-23T09:57:42.837Z,84.4
2017-10-23T09:58:44.241Z,84.5
2017-10-23T09:59:45.643Z,83.9
2017-10-23T10:00:47.048Z,83.7
2017-10-23T10:01:48.449Z,84.0
2017-10-23T10:02:49.857Z,84.2
2017-10-23T10:03:51.262Z,84.2
2017-10-23T10:04:52.668Z,84.1
2017-10-23T10:05:54.112Z,83.8
2017-10-23T10:06:55.519Z,83.6
2017-10-23T10:07:56.927Z,83.7
2017-10-23T10:08:58.332Z,83.6
2017-10-23T10:09:59.738Z,84.2
2017-10-23T10:11:01.151Z,83.6
2017-10-23T10:12:02.556Z,82.8
2017-10-23T10:13:03.960Z,83.5
2017-10-23T10:14:05.366Z,84.2
2017-10-23T10:15:06.774Z,84.5
2017-10-23T10:16:08.180Z,83.6
2017-10-23T10:17:09.586Z,83.9
2017-10-23T10:18:10.990Z,82.7
2017-10-23T10:19:12.398Z,83.0
2017-10-23T10:20:13.803Z,82.5
2017-10-23T10:21:15.219Z,82.8
2017-10-23T10:22:16.617Z,82.8
2017-10-23T10:23:18.021Z,82.8
2017-10-23T10:24:19.427Z,82.8
2017-10-23T10:25:20.833Z,82.9
2017-10-23T10:26:22.238Z,82.9
2017-10-23T10:27:23.660Z,82.7
2017-10-23T10:28:25.064Z,82.6
2017-10-23T10:29:26.469Z,83.0
2017-10-23T10:30:27.873Z,82.9
2017-10-23T10:31:29.280Z,82.9
2017-10-23T10:32:30.685Z,82.2
2017-10-23T10:33:32.094Z,82.1
2017-10-23T10:34:33.497Z,82.8
2017-10-23T10:35:34.905Z,80.9
2017-10-23T10:36:36.311Z,79.4
2017-10-23T10:37:37.746Z,78.8
2017-10-23T10:38:39.150Z,78.0
2017-10-23T10:39:40.557Z,77.9
2017-10-23T10:40:41.973Z,78.3
2017-10-23T10:41:43.378Z,76.3
2017-10-23T10:42:44.785Z,75.0
2017-10-23T10:43:46.190Z,74.3
2017-10-23T10:44:47.599Z,75.5
2017-10-23T10:45:49.006Z,77.1
2017-10-23T10:46:50.412Z,77.1
2017-10-23T10:47:51.817Z,77.1
2017-10-23T10:48:53.219Z,77.8
2017-10-23T10:49:54.621Z,77.8
2017-10-23T10:50:56.027Z,77.9
2017-10-23T10:51:57.437Z,78.1
2017-10-23T10:52:58.841Z,78.5
2017-10-23T10:54:00.248Z,77.1
2017-10-23T10:55:01.651Z,76.8
2017-10-23T10:56:03.061Z,77.5
2017-10-23T10:57:04.465Z,77.1
2017-10-23T10:58:05.872Z,75.9
2017-10-23T10:59:07.281Z,76.6
2017-10-23T11:00:08.693Z,77.1
2017-10-23T11:01:10.098Z,78.2
2017-10-23T11:02:11.502Z,77.8
2017-10-23T11:03:12.910Z,77.8
2017-10-23T11:04:14.310Z,78.1
2017-10-23T11:05:15.714Z,78.4
2017-10-23T11:06:17.120Z,78.8
2017-10-23T11:07:18.527Z,77.9
2017-10-23T11:08:19.936Z,77.6
2017-10-23T11:09:21.344Z,76.9
2017-10-23T11:10:22.751Z,76.1
2017-10-23T11:11:24.161Z,74.3
2017-10-23T11:12:25.575Z,73.2
2017-10-23T11:13:26.976Z,72.7
2017-10-23T11:14:28.384Z,72.7
2017-10-23T11:15:29.790Z,74.3
2017-10-23T11:16:31.194Z,74.9
2017-10-23T11:17:32.599Z,75.9
2017-10-23T11:18:34.004Z,76.3
2017-10-23T11:19:35.411Z,76.5
2017-10-23T11:20:36.818Z,76.6
2017-10-23T11:21:38.221Z,77.6
2017-10-23T11:22:39.627Z,77.8
2017-10-23T11:23:41.032Z,77.5
2017-10-23T11:24:42.438Z,78.2
2017-10-23T11:25:43.841Z,78.1
2017-10-23T11:26:45.249Z,77.5
2017-10-23T11:27:46.656Z,76.7
2017-10-23T11:28:48.061Z,77.0
2017-10-23T11:29:49.470Z,76.6
2017-10-23T11:30:50.869Z,76.5
2017-10-23T11:31:52.279Z,76.7
2017-10-23T11:32:53.680Z,76.2
2017-10-23T11:33:55.088Z,76.1
2017-10-23T11:34:56.496Z,75.4
2017-10-23T11:35:57.906Z,76.0
2017-10-23T11:36:59.313Z,75.3
2017-10-23T11:38:00.719Z,75.6
2017-10-23T11:39:02.131Z,76.3
2017-10-23T11:40:03.536Z,75.5
2017-10-23T11:41:04.945Z,75.4
2017-10-23T11:42:06.362Z,76.2
2017-10-23T11:43:07.768Z,75.9
2017-10-23T11:44:09.177Z,75.9
2017-10-23T11:45:10.578Z,76.3
2017-10-23T11:46:11.986Z,76.5
2017-10-23T11:47:13.393Z,76.1
2017-10-23T11:48:14.798Z,76.0
2017-10-23T11:49:16.203Z,74.8
2017-10-23T11:50:17.611Z,74.9
2017-10-23T11:51:19.017Z,74.9
2017-10-23T11:52:20.422Z,75.0
2017-10-23T11:53:21.828Z,75.2
2017-10-23T11:54:23.233Z,75.3
2017-10-23T11:55:24.640Z,75.8
2017-10-23T11:56:26.049Z,76.4
2017-10-23T11:57:27.459Z,76.5
2017-10-23T11:58:28.865Z,76.1
2017-10-23T11:59:30.273Z,76.5
2017-10-23T12:00:31.680Z,76.5
2017-10-23T12:01:33.076Z,77.7
2017-10-23T12:02:34.486Z,76.7
2017-10-23T12:03:35.887Z,77.1
2017-10-23T12:04:37.297Z,77.0
2017-10-23T12:05:38.702Z,76.2
2017-10-23T12:06:40.104Z,75.1
2017-10-23T12:07:41.508Z,76.2
2017-10-23T12:08:42.908Z,76.2
2017-10-23T12:09:44.314Z,77.1
2017-10-23T12:10:45.726Z,76.9
2017-10-23T12:11:47.132Z,76.5
2017-10-23T12:12:48.539Z,76.2
2017-10-23T12:13:49.942Z,77.0
2017-10-23T12:14:51.348Z,76.1
2017-10-23T12:15:52.748Z,76.8
2017-10-23T12:16:54.155Z,76.0
2017-10-23T12:17:55.561Z,76.8
2017-10-23T12:18:56.966Z,77.1
2017-10-23T12:19:58.372Z,77.1
2017-10-23T12:20:59.776Z,77.6
2017-10-23T12:22:01.183Z,76.7
2017-10-23T12:23:02.588Z,76.5
2017-10-23T12:24:03.994Z,76.1
2017-10-23T12:25:05.398Z,76.9
2017-10-23T12:26:06.803Z,77.0
2017-10-23T12:27:08.213Z,76.2
2017-10-23T12:28:09.614Z,75.3
2017-10-23T12:29:11.016Z,74.2
2017-10-23T12:30:12.417Z,73.9
2017-10-23T12:31:13.828Z,73.5
2017-10-23T12:32:15.233Z,73.6
2017-10-23T12:33:16.637Z,74.1
2017-10-23T12:34:18.045Z,73.8
2017-10-23T12:35:19.448Z,73.9
2017-10-23T12:36:20.850Z,73.8
2017-10-23T12:37:22.252Z,74.2
2017-10-23T12:38:23.656Z,74.7
2017-10-23T12:39:25.059Z,74.3
2017-10-23T12:40:26.467Z,74.3
2017-10-23T12:41:27.872Z,74.2
2017-10-23T12:42:29.277Z,74.5
2017-10-23T12:43:30.681Z,74.1
2017-10-23T12:44:32.087Z,74.4
2017-10-23T12:45:33.493Z,73.8
2017-10-23T12:46:34.898Z,73.0
2017-10-23T12:47:36.299Z,73.1
2017-10-23T12:48:37.704Z,73.9
2017-10-23T12:49:39.105Z,74.2
2017-10-23T12:50:40.510Z,74.7
2017-10-23T12:51:41.911Z,74.2
2017-10-23T12:52:43.314Z,75.0
2017-10-23T12:53:44.718Z,74.4
2017-10-23T12:54:46.127Z,74.2
2017-10-23T12:55:47.529Z,74.4
2017-10-23T12:56:48.933Z,74.4
2017-10-23T12:57:50.337Z,74.6
2017-10-23T12:58:51.743Z,74.8
2017-10-23T12:59:53.146Z,75.0
2017-10-23T13:00:54.550Z,74.7
2017-10-23T13:01:55.953Z,74.8
2017-10-23T13:02:57.356Z,74.2
2017-10-23T13:03:58.757Z,75.0
2017-10-23T13:05:00.160Z,73.4
2017-10-23T13:06:01.563Z,73.5
2017-10-23T13:07:02.968Z,72.8
2017-10-23T13:08:04.372Z,73.1
2017-10-23T13:09:05.776Z,73.5
2017-10-23T13:10:07.185Z,73.9
2017-10-23T13:11:08.587Z,72.9
2017-10-23T13:12:09.990Z,73.0
2017-10-23T13:13:11.395Z,73.9
2017-10-23T13:14:12.801Z,73.6
2017-10-23T13:15:14.207Z,74.0
2017-10-23T13:16:15.626Z,74.0
2017-10-23T13:17:17.028Z,73.5
2017-10-23T13:18:18.433Z,72.9
2017-10-23T13:19:19.842Z,73.0
2017-10-23T13:20:21.245Z,73.9
2017-10-23T13:21:22.650Z,73.9
2017-10-23T13:22:24.055Z,73.0
2017-10-23T13:23:25.461Z,73.1
2017-10-23T13:24:26.912Z,73.3
2017-10-23T13:25:28.317Z,73.4
2017-10-23T13:26:29.723Z,74.1
2017-10-23T13:27:31.129Z,73.1
2017-10-23T13:28:32.537Z,73.6
2017-10-23T13:29:33.940Z,73.9
2017-10-23T13:30:35.349Z,73.4
2017-10-23T13:31:36.755Z,73.0
2017-10-23T13:32:38.156Z,74.0
2017-10-23T13:33:39.561Z,74.1
2017-10-23T13:34:40.965Z,73.5
2017-10-23T13:35:42.367Z,73.0
2017-10-23T13:36:43.770Z,73.2
2017-10-23T13:37:45.176Z,72.8